createdAt,value
2023-01-01T00:04:00.689Z,18.05
2023-01-01T00:08:22.784Z,12.50
2023-01-01T00:12:44.799Z,6.25
2023-01-01T00:17:06.711Z,6.25
2023-01-01T00:21:28.790Z,4.57
2023-01-01T00:25:50.877Z,5.18
2023-01-01T00:30:13.563Z,4.93
2023-01-01T00:34:35.329Z,4.55
2023-01-01T00:38:57.784Z,3.80
2023-01-01T00:43:19.837Z,4.70
2023-01-01T00:47:41.725Z,15.10
2023-01-01T00:52:03.827Z,11.38
2023-01-01T00:56:25.431Z,8.30
2023-01-01T01:00:47.557Z,9.77
2023-01-01T01:05:10.243Z,3.55
2023-01-01T01:09:32.104Z,3.25
2023-01-01T01:13:56.761Z,3.08
2023-01-01T01:18:18.446Z,2.95
2023-01-01T01:22:40.911Z,3.15
2023-01-01T01:27:02.855Z,3.33
2023-01-01T01:31:29.985Z,3.10
2023-01-01T01:35:52.265Z,2.70
2023-01-01T01:40:17.739Z,2.85
2023-01-01T01:44:57.241Z,3.28
2023-01-01T01:49:30.626Z,2.58
2023-01-01T01:53:59.837Z,3.22
2023-01-01T01:58:22.001Z,2.90
2023-01-01T02:03:03.421Z,3.42
2023-01-01T02:07:27.582Z,3.17
2023-01-01T02:11:49.576Z,3.35
2023-01-01T02:16:49.310Z,3.35
2023-01-01T02:21:25.940Z,3.13
2023-01-01T02:26:45.025Z,3.28
2023-01-01T02:31:12.211Z,3.13
2023-01-01T02:35:43.612Z,2.55
2023-01-01T02:40:06.386Z,3.13
2023-01-01T02:44:30.717Z,2.85
2023-01-01T02:48:53.720Z,2.83
2023-01-01T02:53:23.239Z,2.50
2023-01-01T02:58:29.850Z,2.05
2023-01-01T03:03:17.138Z,2.63
2023-01-01T03:08:08.954Z,6.55
2023-01-01T03:13:15.301Z,2.75
2023-01-01T03:18:08.009Z,2.50
2023-01-01T03:22:34.872Z,2.90
2023-01-01T03:27:06.096Z,2.72
2023-01-01T03:31:27.763Z,2.60
2023-01-01T03:36:03.508Z,2.80
2023-01-01T03:40:27.473Z,2.67
2023-01-01T03:45:43.369Z,3.05
2023-01-01T03:50:06.421Z,2.40
2023-01-01T03:54:37.257Z,2.53
2023-01-01T03:59:24.383Z,3.45
2023-01-01T04:03:47.934Z,2.30
2023-01-01T04:08:10.658Z,2.70
2023-01-01T04:12:32.301Z,3.50
2023-01-01T04:16:55.066Z,2.85
2023-01-01T04:21:16.744Z,2.90
2023-01-01T04:25:38.716Z,3.85
2023-01-01T04:30:10.127Z,2.95
2023-01-01T04:34:32.018Z,2.95
2023-01-01T04:38:54.348Z,2.65
2023-01-01T04:43:16.022Z,2.60
2023-01-01T04:47:37.906Z,2.95
2023-01-01T04:52:00.000Z,2.75
2023-01-01T04:56:23.227Z,3.28
2023-01-01T05:00:49.226Z,3.00
2023-01-01T05:05:10.928Z,3.17
2023-01-01T05:09:32.803Z,3.08
2023-01-01T05:13:59.400Z,3.08
2023-01-01T05:18:21.156Z,2.65
2023-01-01T05:22:43.029Z,3.08
2023-01-01T05:27:04.975Z,2.80
2023-01-01T05:31:32.925Z,2.90
2023-01-01T05:35:55.094Z,3.13
2023-01-01T05:40:17.182Z,3.10
2023-01-01T05:44:38.812Z,3.30
2023-01-01T05:49:01.275Z,3.22
2023-01-01T05:53:23.190Z,3.40
2023-01-01T05:57:45.018Z,3.60
2023-01-01T06:02:07.051Z,3.50
2023-01-01T06:06:33.218Z,3.63
2023-01-01T06:11:03.623Z,3.40
2023-01-01T06:15:27.268Z,3.42
2023-01-01T06:19:49.235Z,4.25
2023-01-01T06:24:11.341Z,3.45
2023-01-01T06:28:33.332Z,4.10
2023-01-01T06:32:55.358Z,4.07
2023-01-01T06:37:17.099Z,4.25
2023-01-01T06:41:39.150Z,3.75
2023-01-01T06:46:25.125Z,4.93
2023-01-01T06:50:47.271Z,4.05
2023-01-01T06:55:09.816Z,4.50
2023-01-01T06:59:31.661Z,4.30
2023-01-01T07:04:00.391Z,4.93
2023-01-01T07:08:22.041Z,4.50
2023-01-01T07:12:45.883Z,4.43
2023-01-01T07:17:07.632Z,4.38
2023-01-01T07:21:41.443Z,4.45
2023-01-01T07:26:03.388Z,4.25
2023-01-01T07:30:25.428Z,4.20
2023-01-01T07:34:50.632Z,4.03
2023-01-01T07:39:13.264Z,4.53
2023-01-01T07:43:35.443Z,3.90
2023-01-01T07:47:59.007Z,3.90
2023-01-01T07:52:21.223Z,3.97
2023-01-01T07:56:43.136Z,4.93
2023-01-01T08:01:05.257Z,3.53
2023-01-01T08:05:27.412Z,4.43
2023-01-01T08:09:49.307Z,3.92
2023-01-01T08:14:11.840Z,3.92
2023-01-01T08:18:33.746Z,3.88
2023-01-01T08:22:57.305Z,3.38
2023-01-01T08:27:22.564Z,3.03
2023-01-01T08:31:45.565Z,3.20
2023-01-01T08:36:10.750Z,3.60
2023-01-01T08:40:32.539Z,3.75
2023-01-01T08:44:54.348Z,6.05
2023-01-01T08:49:16.289Z,3.58
2023-01-01T08:53:38.148Z,3.17
2023-01-01T08:57:59.836Z,3.33
2023-01-01T09:02:22.159Z,3.17
2023-01-01T09:06:44.538Z,3.10
2023-01-01T09:11:07.876Z,3.30
2023-01-01T09:15:29.708Z,3.38
2023-01-01T09:19:51.578Z,2.90
2023-01-01T09:24:13.403Z,3.00
2023-01-01T09:28:36.497Z,2.88
2023-01-01T09:32:58.229Z,2.47
2023-01-01T09:37:20.196Z,2.83
2023-01-01T09:42:20.312Z,2.63
2023-01-01T09:46:44.084Z,2.42
2023-01-01T09:51:15.728Z,2.35
2023-01-01T09:56:00.860Z,2.65
2023-01-01T10:00:23.184Z,3.10
2023-01-01T10:05:09.231Z,3.47
2023-01-01T10:10:04.385Z,2.70
2023-01-01T10:14:46.554Z,2.60
2023-01-01T10:19:51.900Z,2.50
2023-01-01T10:24:39.045Z,3.00
2023-01-01T10:29:15.049Z,4.03
2023-01-01T10:33:36.911Z,3.10
2023-01-01T10:38:04.138Z,3.50
2023-01-01T10:42:26.683Z,9.32
2023-01-01T10:46:57.440Z,2.67
2023-01-01T10:51:24.830Z,3.05
2023-01-01T10:55:57.295Z,2.63
2023-01-01T11:00:28.918Z,2.50
2023-01-01T11:04:52.220Z,3.15
2023-01-01T11:09:27.556Z,3.15
2023-01-01T11:13:57.012Z,3.00
2023-01-01T11:18:35.947Z,3.15
2023-01-01T11:22:57.980Z,3.00
2023-01-01T11:27:25.389Z,2.35
2023-01-01T11:31:48.462Z,6.47
2023-01-01T11:36:10.820Z,2.72
2023-01-01T11:40:49.594Z,2.92
2023-01-01T11:45:37.333Z,2.63
2023-01-01T11:50:39.570Z,3.40
2023-01-01T11:55:29.275Z,2.42
2023-01-01T12:00:01.938Z,2.67
2023-01-01T12:04:31.240Z,2.72
2023-01-01T12:09:18.676Z,2.92
2023-01-01T12:14:01.848Z,3.17
2023-01-01T12:19:02.228Z,2.95
2023-01-01T12:23:23.864Z,2.30
2023-01-01T12:28:30.037Z,3.20
2023-01-01T12:33:35.482Z,2.63
2023-01-01T12:38:33.144Z,2.55
2023-01-01T12:43:15.667Z,3.03
2023-01-01T12:47:59.350Z,2.92
2023-01-01T12:52:49.651Z,3.05
2023-01-01T12:57:48.742Z,2.60
2023-01-01T14:59:28.102Z,2.92
2023-01-01T15:04:13.365Z,3.20
2023-01-01T15:08:35.802Z,2.67
2023-01-01T15:12:58.602Z,3.63
2023-01-01T15:17:26.334Z,3.13
2023-01-01T15:21:47.949Z,4.18
2023-01-01T15:26:32.828Z,3.58
2023-01-01T15:30:57.070Z,3.35
2023-01-01T15:35:24.869Z,3.63
2023-01-01T15:40:00.523Z,3.30
2023-01-01T15:44:36.318Z,3.63
2023-01-01T15:48:58.309Z,3.72
2023-01-01T15:53:24.038Z,3.85
2023-01-01T15:57:47.615Z,3.90
2023-01-01T16:02:42.387Z,3.85
2023-01-01T16:07:04.105Z,3.88
2023-01-01T16:11:25.940Z,2.97
2023-01-01T16:15:59.256Z,3.83
2023-01-01T16:20:22.588Z,3.60
2023-01-01T16:24:45.532Z,4.13
2023-01-01T16:29:07.664Z,3.83
2023-01-01T16:33:29.686Z,3.55
2023-01-01T16:37:51.869Z,4.00
2023-01-01T16:42:13.819Z,2.97
2023-01-01T16:46:36.360Z,3.80
2023-01-01T16:50:58.271Z,4.30
2023-01-01T16:55:20.211Z,4.43
2023-01-01T16:59:42.699Z,5.03
2023-01-01T17:04:05.278Z,4.22
2023-01-01T17:08:27.208Z,4.00
2023-01-01T17:12:49.324Z,4.07
2023-01-01T17:17:11.211Z,4.85
2023-01-01T17:21:32.905Z,4.15
2023-01-01T17:25:55.165Z,4.90
2023-01-01T17:30:16.891Z,4.78
2023-01-01T17:34:38.822Z,4.32
2023-01-01T17:39:00.730Z,5.10
2023-01-01T17:43:22.931Z,4.55
2023-01-01T17:47:44.678Z,4.60
2023-01-01T17:52:06.662Z,4.05
2023-01-01T17:56:28.650Z,4.50
2023-01-01T18:00:51.293Z,4.28
2023-01-01T18:05:13.468Z,4.78
2023-01-01T18:09:38.319Z,4.45
2023-01-01T18:14:03.025Z,4.57
2023-01-01T18:18:24.711Z,5.25
2023-01-01T18:22:46.937Z,4.28
2023-01-01T18:27:08.671Z,4.60
2023-01-01T18:31:33.636Z,4.88
2023-01-01T18:36:03.264Z,4.75
2023-01-01T18:40:27.327Z,4.93
2023-01-01T18:44:49.314Z,4.85
2023-01-01T18:49:12.193Z,4.72
2023-01-01T18:53:34.171Z,4.70
2023-01-01T18:58:17.464Z,4.57
2023-01-01T19:03:01.084Z,5.53
2023-01-01T19:07:23.101Z,4.90
2023-01-01T19:11:44.886Z,4.32
2023-01-01T19:16:12.912Z,3.88
2023-01-01T19:20:35.658Z,4.43
2023-01-01T19:24:57.641Z,4.40
2023-01-01T19:29:23.582Z,4.50
2023-01-01T19:33:46.206Z,4.65
2023-01-01T19:38:08.322Z,4.43
2023-01-01T19:42:30.259Z,4.15
2023-01-01T19:46:52.127Z,4.13
2023-01-01T19:51:14.197Z,4.30
2023-01-01T19:55:36.363Z,3.70
2023-01-01T19:59:58.272Z,4.22
2023-01-01T20:04:20.272Z,4.57
2023-01-01T20:08:42.138Z,4.45
2023-01-01T20:13:04.789Z,4.82
2023-01-01T20:17:26.837Z,4.38
2023-01-01T20:22:07.616Z,4.40
2023-01-01T20:26:29.404Z,4.70
2023-01-01T20:30:51.354Z,4.20
2023-01-01T20:35:13.259Z,4.53
2023-01-01T20:39:35.234Z,4.63
2023-01-01T20:43:59.844Z,4.03
2023-01-01T20:48:21.434Z,4.75
2023-01-01T20:52:43.310Z,3.88
2023-01-01T20:57:05.418Z,4.95
2023-01-01T21:01:27.943Z,5.18
2023-01-01T21:05:50.175Z,4.25
2023-01-01T21:10:12.220Z,4.28
2023-01-01T21:14:34.656Z,5.25
2023-01-01T21:18:57.660Z,4.38
2023-01-01T21:23:27.344Z,5.38
2023-01-01T21:27:49.404Z,4.95
2023-01-01T21:32:20.459Z,5.28
2023-01-01T21:36:42.597Z,5.53
2023-01-01T21:41:20.098Z,6.47
2023-01-01T21:45:46.210Z,5.68
2023-01-01T21:50:25.297Z,5.60
2023-01-01T21:54:48.358Z,5.57
2023-01-01T21:59:26.119Z,5.85
2023-01-01T22:04:10.598Z,6.72
2023-01-01T22:08:33.975Z,6.03
2023-01-01T22:13:00.695Z,5.75
2023-01-01T22:17:36.794Z,6.00
2023-01-01T22:22:00.009Z,6.15
2023-01-01T22:26:28.101Z,6.13
2023-01-01T22:30:58.137Z,5.50
2023-01-01T22:35:30.860Z,4.68
2023-01-01T22:39:52.617Z,4.60
2023-01-01T22:44:15.519Z,4.97
2023-01-01T22:48:38.857Z,4.22
2023-01-01T22:53:00.837Z,5.32
2023-01-01T22:57:23.153Z,4.53
2023-01-01T23:01:44.821Z,4.15
2023-01-01T23:06:07.137Z,3.67
2023-01-01T23:10:29.070Z,3.83
2023-01-01T23:15:09.965Z,4.40
2023-01-01T23:19:31.616Z,4.18
2023-01-01T23:23:57.620Z,3.50
2023-01-01T23:28:19.801Z,2.75
2023-01-01T23:32:42.316Z,3.38
2023-01-01T23:37:04.115Z,3.00
2023-01-01T23:41:26.150Z,3.00
2023-01-01T23:45:48.594Z,3.15
2023-01-01T23:50:10.723Z,3.03
2023-01-01T23:54:32.607Z,2.70
2023-01-01T23:58:54.463Z,2.90
